createdAt,value
2022-10-11T00:04:07.568Z,7.80
2022-10-11T00:09:16.462Z,7.78
2022-10-11T00:14:22.483Z,7.70
2022-10-11T00:19:44.832Z,7.68
2022-10-11T00:25:33.448Z,7.48
2022-10-11T00:30:50.309Z,7.50
2022-10-11T00:36:10.782Z,7.43
2022-10-11T00:41:29.520Z,7.26
2022-10-11T00:46:58.724Z,7.43
2022-10-11T00:52:29.361Z,7.28
2022-10-11T00:57:54.993Z,7.39
2022-10-11T01:03:15.431Z,7.45
2022-10-11T01:08:34.309Z,7.44
2022-10-11T01:14:21.443Z,7.68
2022-10-11T01:20:09.413Z,7.36
2022-10-11T01:25:38.378Z,7.24
2022-10-11T01:31:06.686Z,7.20
2022-10-11T01:36:31.805Z,7.16
2022-10-11T01:41:55.182Z,7.17
2022-10-11T01:47:15.249Z,7.15
2022-10-11T01:52:43.819Z,7.18
2022-10-11T01:58:16.683Z,7.31
2022-10-11T02:03:53.488Z,7.36
2022-10-11T02:09:22.475Z,7.36
2022-10-11T02:14:50.530Z,7.37
2022-10-11T02:20:15.805Z,7.40
2022-10-11T02:25:37.767Z,7.29
2022-10-11T02:31:01.841Z,7.28
2022-10-11T02:36:44.066Z,7.32
2022-10-11T02:42:11.407Z,7.40
2022-10-11T02:47:33.472Z,7.38
2022-10-11T02:53:05.027Z,7.46
2022-10-11T02:58:21.932Z,7.49
2022-10-11T03:03:42.352Z,7.50
2022-10-11T03:09:00.376Z,7.50
2022-10-11T03:14:20.232Z,7.53
2022-10-11T03:19:40.509Z,7.42
2022-10-11T03:25:03.610Z,7.47
2022-10-11T03:30:26.928Z,7.48
2022-10-11T03:35:48.928Z,7.47
2022-10-11T03:41:09.995Z,7.45
2022-10-11T03:46:31.843Z,7.37
2022-10-11T03:51:50.145Z,7.41
2022-10-11T03:57:13.874Z,7.36
2022-10-11T04:02:39.307Z,7.35
2022-10-11T04:08:01.576Z,7.33
2022-10-11T04:13:21.646Z,7.31
2022-10-11T04:18:42.438Z,7.32
2022-10-11T04:24:00.730Z,7.28
2022-10-11T04:29:21.679Z,7.28
2022-10-11T04:34:40.668Z,7.24
2022-10-11T04:40:02.816Z,7.20
2022-10-11T04:45:23.274Z,7.10
2022-10-11T04:50:41.488Z,7.10
2022-10-11T04:56:02.248Z,7.10
2022-10-11T05:01:22.768Z,7.03
2022-10-11T05:06:40.582Z,6.96
2022-10-11T05:12:00.277Z,6.96
2022-10-11T05:17:20.361Z,6.90
2022-10-11T05:22:40.077Z,6.91
2022-10-11T05:27:59.692Z,6.98
2022-10-11T05:33:19.779Z,7.04
2022-10-11T05:38:40.260Z,7.09
2022-10-11T05:43:59.159Z,7.17
2022-10-11T05:49:19.604Z,7.28
2022-10-11T05:54:41.066Z,7.41
2022-10-11T06:00:03.693Z,7.57
2022-10-11T06:05:30.288Z,7.74
2022-10-11T06:10:54.175Z,7.85
2022-10-11T06:16:19.529Z,7.95
2022-10-11T06:21:39.157Z,8.05
2022-10-11T06:26:57.254Z,8.13
2022-10-11T06:32:48.853Z,8.22
2022-10-11T06:38:34.687Z,8.27
2022-10-11T06:44:15.254Z,8.32
2022-10-11T06:49:37.656Z,8.37
2022-10-11T06:54:57.536Z,8.44
2022-10-11T07:00:18.016Z,8.51
2022-10-11T07:05:50.654Z,8.65
2022-10-11T07:11:33.039Z,8.75
2022-10-11T07:17:13.623Z,8.82
2022-10-11T07:22:53.071Z,8.93
2022-10-11T07:28:27.698Z,9.18
2022-10-11T07:34:06.955Z,9.31
2022-10-11T07:39:25.932Z,9.39
2022-10-11T07:45:00.759Z,9.47
2022-10-11T07:50:19.348Z,9.49
2022-10-11T07:55:40.558Z,9.62
2022-10-11T08:01:48.101Z,9.74
2022-10-11T08:07:07.905Z,9.76
2022-10-11T08:12:44.790Z,9.87
2022-10-11T08:18:33.608Z,10.03
2022-10-11T08:24:10.934Z,10.15
2022-10-11T08:29:30.322Z,10.15
2022-10-11T08:34:51.287Z,10.19
2022-10-11T08:40:16.540Z,10.41
2022-10-11T08:45:40.648Z,10.55
2022-10-11T08:50:52.195Z,10.50
2022-10-11T08:55:58.499Z,10.58
2022-10-11T09:01:12.345Z,10.54
2022-10-11T09:06:36.965Z,10.52
2022-10-11T09:12:02.429Z,10.66
2022-10-11T09:17:24.207Z,10.68
2022-10-11T09:22:43.595Z,10.71
2022-10-11T09:28:13.497Z,10.79
2022-10-11T09:33:33.383Z,10.79
2022-10-11T09:38:47.802Z,10.94
2022-10-11T09:43:54.368Z,10.98
2022-10-11T09:49:06.217Z,11.02
2022-10-11T09:54:12.126Z,10.96
2022-10-11T09:59:30.158Z,11.06
2022-10-11T10:04:55.411Z,11.17
2022-10-11T10:10:22.253Z,11.10
2022-10-11T10:15:32.204Z,11.05
2022-10-11T10:20:40.693Z,11.05
2022-10-11T10:25:51.409Z,11.21
2022-10-11T10:30:59.637Z,11.27
2022-10-11T10:36:20.709Z,11.29
2022-10-11T10:41:27.333Z,11.42
2022-10-11T10:46:52.911Z,11.60
2022-10-11T10:52:21.985Z,11.56
2022-10-11T10:57:32.931Z,11.51
2022-10-11T11:10:20.943Z,11.46
2022-10-11T11:15:42.805Z,11.45
2022-10-11T11:28:20.688Z,11.43
2022-10-11T11:33:58.300Z,11.42
2022-10-11T11:39:08.858Z,11.42
2022-10-11T11:44:27.566Z,11.44
2022-10-11T11:49:41.256Z,11.44
2022-10-11T11:55:00.164Z,11.49
2022-10-11T12:00:20.453Z,11.61
2022-10-11T12:05:32.768Z,11.68
2022-10-11T12:10:55.935Z,11.67
2022-10-11T12:16:14.539Z,11.68
2022-10-11T12:21:30.646Z,11.70
2022-10-11T12:26:44.684Z,11.80
2022-10-11T12:32:51.817Z,11.95
2022-10-11T12:38:20.292Z,11.96
2022-10-11T12:44:20.947Z,11.86
2022-10-11T12:50:28.371Z,11.84
2022-10-11T12:55:53.476Z,11.86
2022-10-11T13:01:23.602Z,11.95
2022-10-11T13:06:39.724Z,12.05
2022-10-11T13:11:52.572Z,12.11
2022-10-11T13:17:09.189Z,12.04
2022-10-11T13:22:23.257Z,11.96
2022-10-11T13:27:30.614Z,11.93
2022-10-11T13:32:38.844Z,11.95
2022-10-11T13:37:49.082Z,11.92
2022-10-11T13:42:56.616Z,11.91
2022-10-11T13:48:03.586Z,11.88
2022-10-11T13:53:26.393Z,11.90
2022-10-11T13:58:39.114Z,11.92
2022-10-11T14:03:50.442Z,11.93
2022-10-11T14:08:59.577Z,11.98
2022-10-11T14:14:31.575Z,12.11
2022-10-11T14:19:38.864Z,12.12
2022-10-11T14:24:49.729Z,12.07
2022-10-11T14:30:20.250Z,12.00
2022-10-11T14:35:26.168Z,11.98
2022-10-11T14:40:34.299Z,11.98
2022-10-11T14:45:40.621Z,12.00
2022-10-11T14:50:51.742Z,12.01
2022-10-11T14:55:59.261Z,11.95
2022-10-11T15:01:08.018Z,11.90
2022-10-11T15:06:20.946Z,11.85
2022-10-11T15:11:28.801Z,11.79
2022-10-11T15:16:36.234Z,11.75
2022-10-11T15:21:42.435Z,11.69
2022-10-11T15:26:51.162Z,11.64
2022-10-11T15:31:57.228Z,11.59
2022-10-11T15:37:07.828Z,11.56
2022-10-11T15:42:15.145Z,11.49
2022-10-11T15:47:21.319Z,11.42
2022-10-11T15:52:27.342Z,11.39
2022-10-11T15:57:34.945Z,11.31
2022-10-11T16:02:41.395Z,11.18
2022-10-11T16:07:47.423Z,10.95
2022-10-11T16:12:54.935Z,10.93
2022-10-11T16:18:02.721Z,10.87
2022-10-11T16:23:10.378Z,10.83
2022-10-11T16:28:18.191Z,10.67
2022-10-11T16:33:24.550Z,10.59
2022-10-11T16:38:30.544Z,10.52
2022-10-11T16:43:38.060Z,10.25
2022-10-11T16:48:43.906Z,10.21
2022-10-11T16:53:49.880Z,10.21
2022-10-11T17:00:10.254Z,10.02
2022-10-11T17:12:28.540Z,9.66
2022-10-11T17:17:34.847Z,9.27
2022-10-11T17:22:41.854Z,9.37
2022-10-11T17:27:49.782Z,9.44
2022-10-11T17:32:56.455Z,9.47
2022-10-11T17:38:06.117Z,9.31
2022-10-11T17:43:16.153Z,9.24
2022-10-11T17:48:23.687Z,8.78
2022-10-11T17:53:30.829Z,8.94
2022-10-11T17:58:39.298Z,9.03
2022-10-11T18:03:46.492Z,9.07
2022-10-11T18:08:53.406Z,9.02
2022-10-11T18:14:01.922Z,8.70
2022-10-11T18:19:11.912Z,8.32
2022-10-11T18:24:19.238Z,8.49
2022-10-11T18:29:27.049Z,8.55
2022-10-11T18:34:35.739Z,8.50
2022-10-11T18:39:41.985Z,8.36
2022-10-11T18:44:50.022Z,8.10
2022-10-11T18:49:58.376Z,8.24
2022-10-11T18:55:09.175Z,8.20
2022-10-11T19:00:40.039Z,8.07
2022-10-11T19:05:47.178Z,8.10
2022-10-11T19:10:53.453Z,7.90
2022-10-11T19:16:08.785Z,7.70
2022-10-11T19:21:15.917Z,7.58
2022-10-11T19:26:24.662Z,7.65
2022-10-11T19:31:35.539Z,7.64
2022-10-11T19:36:43.095Z,7.57
2022-10-11T19:41:50.157Z,7.64
2022-10-11T19:47:47.449Z,7.53
2022-10-11T19:53:18.637Z,7.51
2022-10-11T19:58:26.007Z,7.32
2022-10-11T20:04:00.651Z,7.35
2022-10-11T20:09:32.854Z,7.12
2022-10-11T20:15:04.305Z,7.20
2022-10-11T20:20:13.740Z,6.79
2022-10-11T20:25:20.864Z,6.88
2022-10-11T20:30:27.643Z,6.83
2022-10-11T20:35:35.997Z,6.91
2022-10-11T20:40:48.310Z,6.34
2022-10-11T20:46:07.601Z,6.61
2022-10-11T20:51:15.193Z,6.66
2022-10-11T20:56:25.588Z,6.53
2022-10-11T21:01:37.287Z,6.61
2022-10-11T21:06:46.624Z,6.74
2022-10-11T21:12:41.861Z,6.64
2022-10-11T21:17:48.525Z,6.65
2022-10-11T21:22:57.691Z,6.41
2022-10-11T21:28:09.311Z,6.39
2022-10-11T21:33:18.216Z,6.43
2022-10-11T21:39:16.818Z,6.36
2022-10-11T21:44:23.202Z,6.21
2022-10-11T21:49:30.751Z,6.08
2022-10-11T21:54:39.751Z,6.07
2022-10-11T21:59:49.293Z,6.08
2022-10-11T22:05:00.493Z,5.83
2022-10-11T22:10:08.971Z,5.84
2022-10-11T22:16:31.014Z,5.83
2022-10-11T22:21:41.288Z,5.79
2022-10-11T22:26:52.154Z,5.40
2022-10-11T22:32:02.333Z,5.58
2022-10-11T22:37:08.605Z,5.63
2022-10-11T22:42:16.306Z,5.56
2022-10-11T22:47:47.903Z,5.69
2022-10-11T22:53:19.693Z,5.65
2022-10-11T22:58:54.298Z,5.33
2022-10-11T23:04:00.825Z,5.07
2022-10-11T23:09:07.487Z,5.29
2022-10-11T23:14:15.802Z,5.44
2022-10-11T23:20:36.627Z,5.39
2022-10-11T23:26:32.065Z,5.12
2022-10-11T23:31:41.627Z,4.96
2022-10-11T23:37:37.538Z,4.83
2022-10-11T23:42:44.680Z,4.52
2022-10-11T23:47:52.579Z,4.14
2022-10-11T23:52:58.953Z,4.30
2022-10-11T23:58:06.158Z,4.64
